Time;durP1;ratioP1;P1;durP2;ratioP2;P2;SDS_P1;SDS_P2;PMS_P1;PMS_P2;Temp;Humidity;BMP_temperature;BMP_pressure;BME280_temperature;BME280_humidity;BME280_pressure;Samples;Min_cycle;Max_cycle;Signal;HPM_P1;HPM_P2
2022/11/17 00:01:25;;;;;;;7.38;3.30;;;10.30;99.90;;;;;;4958993;28;20110;-73
2022/11/17 00:03:51;;;;;;;10.25;3.15;;;10.30;99.90;;;;;;4993973;28;20386;-72
2022/11/17 00:06:19;;;;;;;8.05;3.00;;;10.30;99.90;;;;;;4983180;28;20110;-72
2022/11/17 00:08:45;;;;;;;6.88;2.80;;;10.30;99.90;;;;;;4988866;28;20026;-73
2022/11/17 00:11:11;;;;;;;7.55;2.65;;;10.40;99.90;;;;;;4984702;28;20414;-73
2022/11/17 00:16:21;;;;;;;8.48;2.72;;;10.40;99.90;;;;;;4984862;28;20114;-73
2022/11/17 00:21:31;;;;;;;10.82;3.17;;;10.40;99.90;;;;;;4994592;28;20054;-73
2022/11/17 00:23:57;;;;;;;11.55;3.20;;;10.40;99.90;;;;;;4992506;28;20022;-73
2022/11/17 00:26:25;;;;;;;4.95;2.60;;;10.40;99.90;;;;;;4993416;28;20030;-73
2022/11/17 00:28:56;;;;;;;8.90;2.90;;;10.40;99.90;;;;;;4980724;28;20070;-72
2022/11/17 00:34:12;;;;;;;7.82;2.95;;;10.40;99.90;;;;;;4992395;28;20537;-73
2022/11/17 00:36:47;;;;;;;6.68;2.67;;;10.40;99.90;;;;;;4993405;28;20022;-73
2022/11/17 00:39:14;;;;;;;5.72;2.88;;;10.40;99.90;;;;;;4993275;28;20023;-72
2022/11/17 00:41:39;;;;;;;10.32;3.20;;;10.40;99.90;;;;;;4989740;28;20042;-72
2022/11/17 00:44:05;;;;;;;7.97;2.78;;;10.40;99.90;;;;;;4992596;28;20120;-72
2022/11/17 00:46:31;;;;;;;5.95;2.53;;;10.40;99.90;;;;;;4985672;28;20034;-72
2022/11/17 00:48:57;;;;;;;8.32;2.95;;;10.40;99.90;;;;;;4991732;28;20085;-72
2022/11/17 00:51:24;;;;;;;4.32;2.33;;;10.50;99.90;;;;;;4983780;28;20035;-72
2022/11/17 00:53:50;;;;;;;3.60;2.40;;;10.50;99.90;;;;;;4986742;28;20040;-72
2022/11/17 00:56:16;;;;;;;5.20;2.65;;;10.50;99.90;;;;;;4981714;28;20018;-72
2022/11/17 00:58:42;;;;;;;6.13;2.90;;;10.50;99.90;;;;;;4986321;28;20022;-72
2022/11/17 01:01:08;;;;;;;5.88;2.80;;;10.50;99.90;;;;;;4991719;28;20553;-72
2022/11/17 01:03:34;;;;;;;3.78;2.45;;;10.50;99.90;;;;;;4988052;28;20077;-72
2022/11/17 01:06:18;;;;;;;6.55;2.45;;;10.50;99.90;;;;;;4987667;28;20031;-72
2022/11/17 01:08:44;;;;;;;5.43;2.33;;;10.60;99.90;;;;;;4988867;28;20038;-72
2022/11/17 01:11:16;;;;;;;4.90;2.78;;;10.60;99.90;;;;;;4990427;28;20109;-72
2022/11/17 01:13:43;;;;;;;4.82;2.20;;;10.60;99.90;;;;;;4987952;28;20050;-72
2022/11/17 01:16:17;;;;;;;4.25;2.30;;;10.60;99.90;;;;;;4991721;28;20046;-72
2022/11/17 01:18:44;;;;;;;4.47;2.47;;;10.60;99.90;;;;;;4978169;28;20022;-72
2022/11/17 01:21:12;;;;;;;3.45;2.15;;;10.60;99.90;;;;;;4984946;28;20027;-72
2022/11/17 01:23:40;;;;;;;6.20;2.05;;;10.60;99.90;;;;;;4988184;28;20490;-72
2022/11/17 01:26:11;;;;;;;4.35;2.00;;;10.60;99.90;;;;;;4992562;28;20022;-72
2022/11/17 01:28:37;;;;;;;5.75;2.30;;;10.70;99.90;;;;;;4992129;28;20431;-72
2022/11/17 01:31:06;;;;;;;5.20;2.22;;;10.70;99.90;;;;;;4991656;28;20106;-72
2022/11/17 01:33:32;;;;;;;4.47;1.90;;;10.70;99.90;;;;;;4992392;28;20394;-72
2022/11/17 01:36:12;;;;;;;4.00;2.25;;;10.70;99.90;;;;;;4991765;28;20022;-72
2022/11/17 01:38:37;;;;;;;5.20;1.98;;;10.80;99.90;;;;;;4992112;28;20619;-72
2022/11/17 01:41:06;;;;;;;4.50;1.95;;;10.80;99.90;;;;;;4991272;28;20097;-72
2022/11/17 01:43:40;;;;;;;3.33;1.98;;;10.80;99.90;;;;;;4992234;28;20120;-72
2022/11/17 01:46:37;;;;;;;4.32;2.17;;;10.80;99.90;;;;;;4991951;28;20030;-72
2022/11/17 01:49:21;;;;;;;6.45;2.30;;;10.80;99.90;;;;;;4982121;28;20046;-72
2022/11/17 01:51:54;;;;;;;4.80;2.30;;;10.90;99.90;;;;;;4992400;28;20325;-72
2022/11/17 01:54:22;;;;;;;5.50;2.22;;;10.80;99.90;;;;;;4991082;28;20046;-72
2022/11/17 01:56:52;;;;;;;3.78;2.30;;;10.90;99.90;;;;;;4992390;28;20040;-72
2022/11/17 01:59:23;;;;;;;7.40;2.63;;;10.90;99.90;;;;;;4990190;28;20030;-72
2022/11/17 02:01:56;;;;;;;4.53;2.28;;;10.90;99.90;;;;;;4986569;28;20114;-72
2022/11/17 02:04:36;;;;;;;5.53;2.25;;;10.90;99.90;;;;;;4991636;28;20118;-72
2022/11/17 02:07:16;;;;;;;6.07;2.63;;;10.90;99.90;;;;;;4982155;28;20037;-72
2022/11/17 02:09:42;;;;;;;4.53;2.35;;;10.90;99.90;;;;;;4983078;28;20054;-72
2022/11/17 02:12:10;;;;;;;5.82;2.45;;;11.00;99.90;;;;;;4992007;28;20030;-72
2022/11/17 02:14:37;;;;;;;4.90;2.53;;;11.00;99.90;;;;;;4977280;28;20546;-73
2022/11/17 02:17:04;;;;;;;5.40;2.50;;;11.00;99.90;;;;;;4971021;28;20022;-72
2022/11/17 02:19:35;;;;;;;6.03;2.20;;;11.00;99.90;;;;;;4984586;28;20026;-72
2022/11/17 02:22:31;;;;;;;5.25;2.30;;;11.00;99.90;;;;;;4971822;28;20081;-72
2022/11/17 02:25:06;;;;;;;6.00;2.28;;;11.00;99.90;;;;;;4983377;28;20439;-72
2022/11/17 02:28:02;;;;;;;3.45;2.05;;;11.00;99.90;;;;;;4991645;28;20054;-72
2022/11/17 02:30:40;;;;;;;7.47;2.38;;;11.00;99.90;;;;;;4991649;28;20042;-72
2022/11/17 02:33:14;;;;;;;5.18;2.13;;;11.00;99.90;;;;;;4991346;28;20518;-71
2022/11/17 02:35:45;;;;;;;3.92;1.70;;;11.00;99.90;;;;;;4986108;28;20414;-72
2022/11/17 02:38:45;;;;;;;5.97;2.20;;;11.00;99.90;;;;;;4983869;28;20030;-72
2022/11/17 02:41:27;;;;;;;6.55;2.42;;;11.00;99.90;;;;;;4929777;29;20051;-72
2022/11/17 02:44:15;;;;;;;7.05;2.25;;;11.00;99.90;;;;;;4930032;29;20134;-72
2022/11/17 02:46:47;;;;;;;3.78;2.00;;;11.00;99.90;;;;;;4930407;29;20118;-72
2022/11/17 02:49:29;;;;;;;8.95;2.75;;;11.00;99.90;;;;;;4930232;29;20367;-72
2022/11/17 02:51:57;;;;;;;5.95;1.92;;;10.90;99.90;;;;;;4930124;29;20055;-72
2022/11/17 02:54:25;;;;;;;6.82;2.20;;;10.90;99.90;;;;;;4918005;29;20091;-72
2022/11/17 02:56:51;;;;;;;7.32;2.20;;;10.90;99.90;;;;;;4929844;29;20090;-72
2022/11/17 02:59:20;;;;;;;6.72;2.28;;;11.00;99.90;;;;;;4929051;29;20043;-72
2022/11/17 03:02:00;;;;;;;8.32;2.20;;;10.90;99.90;;;;;;4930175;29;20095;-72
2022/11/17 03:04:42;;;;;;;6.53;2.00;;;10.90;99.90;;;;;;4930199;29;20051;-72
2022/11/17 03:07:37;;;;;;;13.55;2.10;;;11.00;99.90;;;;;;4929897;29;20036;-72
2022/11/17 03:10:38;;;;;;;12.65;1.90;;;11.00;99.90;;;;;;4912924;29;20048;-72
2022/11/17 03:13:27;;;;;;;9.38;1.92;;;11.00;99.90;;;;;;4905415;29;20468;-72
2022/11/17 03:16:10;;;;;;;9.88;1.95;;;11.00;99.90;;;;;;4920867;29;20032;-72
2022/11/17 03:18:42;;;;;;;8.55;1.98;;;11.00;99.90;;;;;;4960767;28;20049;-72
2022/11/17 03:21:26;;;;;;;7.55;2.00;;;11.00;99.90;;;;;;4990644;28;20054;-72
2022/11/17 03:24:12;;;;;;;5.80;1.75;;;11.00;99.90;;;;;;5001467;28;20085;-72
2022/11/17 03:26:42;;;;;;;8.18;1.80;;;11.00;99.90;;;;;;4980303;28;20062;-72
2022/11/17 03:29:12;;;;;;;6.07;1.50;;;11.00;99.90;;;;;;4979910;28;20069;-72
2022/11/17 03:31:40;;;;;;;6.90;1.60;;;11.00;99.90;;;;;;4985798;28;20034;-73
2022/11/17 03:34:12;;;;;;;6.60;1.88;;;11.10;99.90;;;;;;4976498;28;20045;-72
2022/11/17 03:36:42;;;;;;;7.05;1.60;;;11.10;99.90;;;;;;4988795;28;20035;-72
2022/11/17 03:39:10;;;;;;;4.70;1.45;;;11.10;99.90;;;;;;4993763;28;20034;-72
2022/11/17 03:41:41;;;;;;;8.85;1.80;;;11.10;99.90;;;;;;4989109;28;20055;-72
2022/11/17 03:44:07;;;;;;;6.05;1.40;;;11.10;99.90;;;;;;4983130;28;20042;-72
2022/11/17 03:46:35;;;;;;;4.72;1.42;;;11.10;99.90;;;;;;4987347;28;20101;-73
2022/11/17 03:49:13;;;;;;;6.65;1.45;;;11.10;99.90;;;;;;4991477;28;20031;-72
2022/11/17 03:51:39;;;;;;;7.25;1.40;;;11.10;99.90;;;;;;4988099;28;20035;-72
2022/11/17 03:54:06;;;;;;;5.80;1.88;;;11.10;99.90;;;;;;4994108;28;20442;-72
2022/11/17 03:56:43;;;;;;;7.22;1.73;;;11.10;99.90;;;;;;5000727;28;20028;-72
2022/11/17 03:59:24;;;;;;;8.23;1.63;;;11.20;99.90;;;;;;4991055;28;20097;-72
2022/11/17 04:01:50;;;;;;;5.47;1.30;;;11.20;99.90;;;;;;4989800;28;20407;-72
2022/11/17 04:04:18;;;;;;;9.02;1.58;;;11.20;99.90;;;;;;4983758;28;20042;-72
2022/11/17 04:06:44;;;;;;;6.80;1.48;;;11.10;99.90;;;;;;4990783;28;20038;-72
2022/11/17 04:09:09;;;;;;;9.90;1.73;;;11.20;99.90;;;;;;4993897;28;20026;-72
2022/11/17 04:17:04;;;;;;;7.97;1.63;;;11.20;99.90;;;;;;4992969;28;20042;-71
2022/11/17 04:19:29;;;;;;;8.82;1.63;;;11.10;99.90;;;;;;4992814;28;20022;-71
2022/11/17 04:21:55;;;;;;;10.45;1.60;;;11.10;99.90;;;;;;4993933;28;20026;-72
2022/11/17 04:24:20;;;;;;;8.07;1.67;;;11.10;99.90;;;;;;4977514;28;20078;-72
2022/11/17 04:29:30;;;;;;;6.00;1.30;;;11.10;99.90;;;;;;4985762;28;20775;-72
2022/11/17 04:31:55;;;;;;;7.50;1.58;;;11.10;99.90;;;;;;4992863;28;20331;-71
2022/11/17 04:34:21;;;;;;;5.68;1.20;;;11.10;99.90;;;;;;4992775;28;20390;-70
2022/11/17 04:36:46;;;;;;;13.70;6.78;;;11.10;99.90;;;;;;4991031;28;20469;-70
2022/11/17 04:39:14;;;;;;;16.02;9.27;;;11.10;99.90;;;;;;4993348;28;20018;-70
2022/11/17 04:41:52;;;;;;;7.28;1.58;;;11.10;99.90;;;;;;4979309;28;20058;-69
2022/11/17 04:44:20;;;;;;;3.00;1.20;;;11.10;99.90;;;;;;4993813;28;20109;-69
2022/11/17 04:46:46;;;;;;;2.78;1.10;;;11.10;99.90;;;;;;4993033;28;20045;-69
2022/11/17 04:49:13;;;;;;;2.63;0.95;;;11.10;99.90;;;;;;4993499;28;20471;-70
2022/11/17 04:51:39;;;;;;;5.18;1.15;;;11.10;99.90;;;;;;4992293;28;20037;-69
2022/11/17 04:54:07;;;;;;;3.58;0.98;;;11.10;99.90;;;;;;4992433;28;20097;-70
2022/11/17 04:56:33;;;;;;;2.47;1.05;;;11.10;99.90;;;;;;4992895;28;20025;-70
2022/11/17 04:58:58;;;;;;;4.63;1.40;;;11.10;99.90;;;;;;4993331;28;20094;-70
2022/11/17 05:01:26;;;;;;;3.35;1.13;;;11.10;99.90;;;;;;4993230;28;20451;-70
2022/11/17 05:03:57;;;;;;;3.67;1.60;;;11.20;99.90;;;;;;4991533;28;20031;-70
2022/11/17 05:06:25;;;;;;;7.50;1.80;;;11.20;99.90;;;;;;4992400;28;20275;-70
2022/11/17 05:08:55;;;;;;;5.00;1.50;;;11.20;99.90;;;;;;4991969;28;20478;-70
2022/11/17 05:14:08;;;;;;;5.03;1.40;;;11.20;99.90;;;;;;4993474;28;20080;-70
2022/11/17 05:19:23;;;;;;;4.80;1.40;;;11.20;99.90;;;;;;4982267;28;20038;-69
2022/11/17 05:21:49;;;;;;;4.47;1.83;;;11.20;99.90;;;;;;4989157;28;20507;-70
2022/11/17 05:24:15;;;;;;;5.93;1.60;;;11.20;99.90;;;;;;4993361;28;20023;-70
2022/11/17 05:26:46;;;;;;;5.32;1.85;;;11.20;99.90;;;;;;4992367;28;20117;-70
2022/11/17 05:29:14;;;;;;;5.50;1.70;;;11.20;99.90;;;;;;4992222;28;20097;-70
2022/11/17 05:31:40;;;;;;;6.65;1.80;;;11.20;99.90;;;;;;4992640;28;20455;-70
2022/11/17 05:34:06;;;;;;;5.53;1.80;;;11.20;99.90;;;;;;4992014;28;20034;-71
2022/11/17 05:36:33;;;;;;;4.32;1.60;;;11.20;99.90;;;;;;4986098;28;20030;-71
2022/11/17 05:38:59;;;;;;;3.78;1.65;;;11.20;99.90;;;;;;4991609;28;20015;-70
2022/11/17 05:41:26;;;;;;;5.40;1.95;;;11.20;99.90;;;;;;4991921;28;20050;-70
2022/11/17 05:43:52;;;;;;;7.15;1.92;;;11.20;99.90;;;;;;4989696;28;20057;-71
2022/11/17 05:46:18;;;;;;;5.30;1.88;;;11.20;99.90;;;;;;4991337;28;20010;-71
2022/11/17 05:48:45;;;;;;;6.10;1.63;;;11.20;99.90;;;;;;4988230;28;20049;-71
2022/11/17 05:51:11;;;;;;;4.38;1.90;;;11.30;99.90;;;;;;4991386;28;20399;-71
2022/11/17 05:53:37;;;;;;;9.40;2.20;;;11.30;99.90;;;;;;4991023;28;20026;-70
2022/11/17 05:56:19;;;;;;;5.40;1.88;;;11.30;99.90;;;;;;4991588;28;20096;-70
2022/11/17 05:58:50;;;;;;;7.45;2.10;;;11.20;99.90;;;;;;4991343;28;20394;-70
2022/11/17 06:01:17;;;;;;;6.47;1.98;;;11.20;99.90;;;;;;4990929;28;20049;-70
2022/11/17 06:03:56;;;;;;;9.80;2.47;;;11.30;99.90;;;;;;4991407;28;20068;-71
2022/11/17 06:06:22;;;;;;;6.93;1.90;;;11.20;99.90;;;;;;4990564;28;20117;-70
2022/11/17 06:08:49;;;;;;;8.32;2.22;;;11.20;99.90;;;;;;4991276;28;20101;-70
2022/11/17 06:11:15;;;;;;;4.88;2.00;;;11.20;99.90;;;;;;4991002;28;20022;-70
2022/11/17 06:13:41;;;;;;;7.15;2.08;;;11.20;99.90;;;;;;4991183;28;20026;-71
2022/11/17 06:16:10;;;;;;;8.80;2.20;;;11.20;99.90;;;;;;4991121;28;20054;-71
2022/11/17 06:18:45;;;;;;;8.35;1.98;;;11.20;99.90;;;;;;4991807;28;20030;-70
2022/11/17 06:21:14;;;;;;;7.77;1.93;;;11.20;99.90;;;;;;4983972;28;20022;-70
2022/11/17 06:23:40;;;;;;;7.55;2.20;;;11.20;99.90;;;;;;4991004;28;20026;-70
2022/11/17 06:26:08;;;;;;;7.20;2.45;;;11.20;99.90;;;;;;4991576;28;20457;-70
2022/11/17 06:28:36;;;;;;;6.63;2.38;;;11.20;99.90;;;;;;4991142;28;20380;-70
2022/11/17 06:31:02;;;;;;;7.00;2.17;;;11.10;99.90;;;;;;4990183;28;20080;-71
2022/11/17 06:33:29;;;;;;;9.23;2.20;;;11.10;99.90;;;;;;4990945;28;20034;-71
2022/11/17 06:35:57;;;;;;;8.10;1.92;;;11.10;99.90;;;;;;4991661;28;20026;-71
2022/11/17 06:38:23;;;;;;;6.97;1.80;;;11.10;99.90;;;;;;4990491;28;20156;-70
2022/11/17 06:40:50;;;;;;;6.10;1.70;;;11.10;99.90;;;;;;4990664;28;20534;-71
2022/11/17 06:43:16;;;;;;;7.65;1.88;;;11.10;99.90;;;;;;4989603;28;20469;-71
2022/11/17 06:45:46;;;;;;;5.72;1.80;;;11.10;99.90;;;;;;4989244;28;20026;-71
2022/11/17 06:48:15;;;;;;;9.52;1.80;;;11.10;99.90;;;;;;4987792;28;20019;-72
2022/11/17 06:50:41;;;;;;;3.03;1.25;;;11.00;99.90;;;;;;4989013;28;20023;-72
2022/11/17 06:53:08;;;;;;;6.00;1.90;;;11.10;99.90;;;;;;4988417;28;20034;-71
2022/11/17 06:55:35;;;;;;;7.82;1.90;;;11.00;99.90;;;;;;4990121;28;20033;-71
2022/11/17 06:58:05;;;;;;;5.63;1.75;;;11.00;99.90;;;;;;4987932;28;20026;-72
2022/11/17 07:00:31;;;;;;;5.53;1.67;;;11.00;99.90;;;;;;4990205;28;20033;-72
2022/11/17 07:03:05;;;;;;;4.32;2.13;;;11.00;99.90;;;;;;4981487;28;20114;-72
2022/11/17 07:05:32;;;;;;;5.43;1.80;;;11.00;99.90;;;;;;4974439;28;20041;-72
2022/11/17 07:08:00;;;;;;;5.57;1.70;;;11.00;99.90;;;;;;4990758;28;20026;-72
2022/11/17 07:10:26;;;;;;;7.07;1.60;;;10.90;99.90;;;;;;4983019;28;20054;-73
2022/11/17 07:12:51;;;;;;;5.25;1.95;;;10.90;99.90;;;;;;4989374;28;20026;-72
2022/11/17 07:15:20;;;;;;;7.40;1.67;;;10.90;99.90;;;;;;4988876;28;20077;-72
2022/11/17 07:17:46;;;;;;;3.25;1.67;;;10.80;99.90;;;;;;4988792;28;20027;-73
2022/11/17 07:20:12;;;;;;;6.95;2.05;;;10.80;99.90;;;;;;4988975;28;20027;-72
2022/11/17 07:22:38;;;;;;;6.30;1.95;;;10.80;99.90;;;;;;4987543;28;20084;-70
2022/11/17 07:25:04;;;;;;;9.18;2.03;;;10.80;99.90;;;;;;4990827;28;20110;-71
2022/11/17 07:27:29;;;;;;;6.95;2.03;;;10.80;99.90;;;;;;4991023;28;20679;-71
2022/11/17 07:29:56;;;;;;;5.15;1.85;;;10.80;99.90;;;;;;4989141;28;20060;-73
2022/11/17 07:32:22;;;;;;;5.38;1.60;;;10.80;99.90;;;;;;4988545;28;20192;-72
2022/11/17 07:34:48;;;;;;;6.45;2.13;;;10.80;99.90;;;;;;4985501;28;20034;-73
2022/11/17 07:37:14;;;;;;;6.80;1.98;;;10.70;99.90;;;;;;4986569;28;20022;-72
2022/11/17 07:39:39;;;;;;;5.10;2.20;;;10.80;99.90;;;;;;4988651;28;20060;-72
2022/11/17 07:42:05;;;;;;;5.25;2.00;;;10.80;99.90;;;;;;4987165;28;20362;-73
2022/11/17 07:44:31;;;;;;;4.63;1.83;;;10.70;99.90;;;;;;4986556;28;20470;-71
2022/11/17 07:46:57;;;;;;;6.35;2.00;;;10.70;99.90;;;;;;4989808;28;20029;-72
2022/11/17 07:49:22;;;;;;;5.18;1.80;;;10.70;99.90;;;;;;4989991;28;20110;-72
2022/11/17 07:51:48;;;;;;;6.60;1.77;;;10.70;99.90;;;;;;4989013;28;20032;-71
2022/11/17 07:54:13;;;;;;;6.55;1.90;;;10.70;99.90;;;;;;4989662;28;20031;-71
2022/11/17 07:56:39;;;;;;;7.05;1.88;;;10.70;99.90;;;;;;4990713;28;20522;-72
2022/11/17 07:59:04;;;;;;;4.55;1.90;;;10.70;99.90;;;;;;4989367;28;20466;-73
2022/11/17 08:01:30;;;;;;;7.50;1.75;;;10.70;99.90;;;;;;4990205;28;20031;-72
2022/11/17 08:03:56;;;;;;;4.68;1.73;;;10.70;99.90;;;;;;4990440;28;20042;-72
2022/11/17 08:06:23;;;;;;;7.32;1.83;;;10.70;99.90;;;;;;4990948;28;20026;-72
2022/11/17 08:08:48;;;;;;;5.55;1.50;;;10.70;99.90;;;;;;4991111;28;20530;-71
2022/11/17 08:11:14;;;;;;;8.75;1.83;;;10.70;99.90;;;;;;4989574;28;20299;-71
2022/11/17 08:13:41;;;;;;;9.45;1.30;;;10.70;99.90;;;;;;4988303;28;20589;-72
2022/11/17 08:16:08;;;;;;;8.23;1.70;;;10.60;99.90;;;;;;4986696;28;20026;-71
2022/11/17 08:18:36;;;;;;;7.70;1.60;;;10.60;99.90;;;;;;4987151;28;20438;-72
2022/11/17 08:21:10;;;;;;;7.35;1.50;;;10.60;99.90;;;;;;4987393;28;20526;-72
2022/11/17 08:23:37;;;;;;;6.97;1.55;;;10.70;99.90;;;;;;4989985;28;20413;-72
2022/11/17 08:26:03;;;;;;;5.57;1.27;;;10.70;99.90;;;;;;4993553;28;20022;-72
2022/11/17 08:28:29;;;;;;;8.40;1.50;;;10.70;99.90;;;;;;4993453;28;20030;-72
2022/11/17 08:30:55;;;;;;;8.35;1.60;;;10.70;99.90;;;;;;4991989;28;20072;-71
2022/11/17 08:33:21;;;;;;;7.03;1.55;;;10.60;99.90;;;;;;4989343;28;20019;-72
2022/11/17 08:35:46;;;;;;;9.18;1.80;;;10.60;99.90;;;;;;4990576;28;20026;-72
2022/11/17 08:38:14;;;;;;;5.25;1.42;;;10.60;99.90;;;;;;4992873;28;20018;-72
2022/11/17 08:40:40;;;;;;;8.52;1.85;;;10.60;99.90;;;;;;4993618;28;20034;-71
2022/11/17 08:43:06;;;;;;;9.00;1.58;;;10.60;99.90;;;;;;4990284;28;20573;-72
2022/11/17 08:45:32;;;;;;;11.43;1.80;;;10.60;99.90;;;;;;4993459;28;20058;-71
2022/11/17 08:47:57;;;;;;;8.43;1.60;;;10.60;99.90;;;;;;5006541;28;20388;-72
2022/11/17 08:50:23;;;;;;;9.68;1.60;;;10.60;99.90;;;;;;4987762;28;20102;-71
2022/11/17 08:52:50;;;;;;;8.07;1.30;;;10.60;99.90;;;;;;4992667;28;20034;-71
2022/11/17 08:55:15;;;;;;;9.75;1.52;;;10.60;99.90;;;;;;4980739;28;20109;-72
2022/11/17 08:57:41;;;;;;;11.82;1.45;;;10.60;99.90;;;;;;4992211;28;20098;-72
2022/11/17 09:00:07;;;;;;;7.68;1.38;;;10.60;99.90;;;;;;4989102;28;20023;-71
2022/11/17 09:02:33;;;;;;;3.20;1.10;;;10.60;99.90;;;;;;4990399;28;20025;-72
2022/11/17 09:04:58;;;;;;;8.25;1.45;;;10.60;99.90;;;;;;4992316;28;20113;-71
2022/11/17 09:07:24;;;;;;;9.60;1.58;;;10.60;99.90;;;;;;4988471;28;20026;-72
2022/11/17 09:09:50;;;;;;;4.57;1.17;;;10.60;99.90;;;;;;4985230;28;20539;-71
2022/11/17 09:12:17;;;;;;;4.03;1.10;;;10.60;99.90;;;;;;4991618;28;20018;-72
2022/11/17 09:14:42;;;;;;;5.38;1.30;;;10.60;99.90;;;;;;4991614;28;20069;-71
2022/11/17 09:17:08;;;;;;;4.03;1.40;;;10.60;99.90;;;;;;4990217;28;20053;-71
2022/11/17 09:19:33;;;;;;;5.07;1.10;;;10.60;99.90;;;;;;4984566;28;20019;-71
2022/11/17 09:21:59;;;;;;;7.53;1.70;;;10.60;99.90;;;;;;4991006;28;20105;-71
2022/11/17 09:24:25;;;;;;;6.20;1.70;;;10.50;99.90;;;;;;4982391;28;20411;-72
2022/11/17 09:26:53;;;;;;;8.15;1.70;;;10.50;99.90;;;;;;4991338;28;20019;-72
2022/11/17 09:29:19;;;;;;;6.65;1.50;;;10.50;99.90;;;;;;4990046;28;20097;-73
2022/11/17 09:31:44;;;;;;;7.60;1.52;;;10.50;99.90;;;;;;4990899;28;20030;-71
2022/11/17 09:34:10;;;;;;;8.50;1.70;;;10.50;99.90;;;;;;4982507;28;20500;-72
2022/11/17 09:36:36;;;;;;;6.72;2.00;;;10.50;99.90;;;;;;4990836;28;20381;-71
2022/11/17 09:39:01;;;;;;;8.25;1.80;;;10.50;99.90;;;;;;4991240;28;20023;-71
2022/11/17 09:41:35;;;;;;;8.68;2.03;;;10.50;99.90;;;;;;4991081;28;20058;-71
2022/11/17 09:44:00;;;;;;;10.63;1.75;;;10.50;99.90;;;;;;4992330;28;20046;-72
2022/11/17 09:46:35;;;;;;;7.65;1.90;;;10.50;99.90;;;;;;4990726;28;20076;-71
2022/11/17 09:49:06;;;;;;;8.02;2.20;;;10.50;99.90;;;;;;4982587;28;20034;-71
2022/11/17 09:51:37;;;;;;;7.20;1.80;;;10.50;99.90;;;;;;4991772;28;20045;-70
2022/11/17 09:54:27;;;;;;;7.63;1.83;;;10.50;99.90;;;;;;4984595;28;20027;-71
2022/11/17 09:56:56;;;;;;;9.23;1.92;;;10.50;99.90;;;;;;4987534;28;20026;-71
2022/11/17 09:59:26;;;;;;;6.65;1.98;;;10.50;99.90;;;;;;4974031;28;20447;-71
2022/11/17 10:01:51;;;;;;;6.50;1.63;;;10.50;99.90;;;;;;4987663;28;20036;-71
2022/11/17 10:04:18;;;;;;;9.18;1.83;;;10.50;99.90;;;;;;4983136;28;20030;-71
2022/11/17 10:06:47;;;;;;;7.97;1.80;;;10.50;99.90;;;;;;4991681;28;20018;-71
2022/11/17 10:09:40;;;;;;;14.80;2.25;;;10.60;99.90;;;;;;4991588;28;20498;-71
2022/11/17 10:12:22;;;;;;;6.65;1.48;;;10.60;99.90;;;;;;4990846;28;20109;-71
2022/11/17 10:14:48;;;;;;;11.75;1.73;;;10.60;99.90;;;;;;4972316;28;20027;-71
2022/11/17 10:17:14;;;;;;;8.77;2.00;;;10.60;99.90;;;;;;4973179;28;20379;-73
2022/11/17 10:19:40;;;;;;;10.80;1.80;;;10.60;99.90;;;;;;4991716;28;20025;-71
2022/11/17 10:22:06;;;;;;;9.50;1.90;;;10.60;99.90;;;;;;4992027;28;20025;-71
2022/11/17 10:24:41;;;;;;;8.30;2.33;;;10.60;99.90;;;;;;4992240;28;20430;-71
2022/11/17 10:27:26;;;;;;;16.00;2.20;;;10.60;99.90;;;;;;4979624;28;20038;-71
2022/11/17 10:30:03;;;;;;;;;;;10.60;99.90;;;;;;4979332;28;20050;-71
2022/11/17 10:32:33;;;;;;;12.48;2.20;;;10.60;99.90;;;;;;4976729;28;20390;-71
2022/11/17 10:35:19;;;;;;;7.88;1.85;;;10.60;99.90;;;;;;4971799;28;20046;-71
2022/11/17 10:38:16;;;;;;;12.63;2.13;;;10.60;99.90;;;;;;4973478;28;20093;-71
2022/11/17 10:40:41;;;;;;;18.38;2.42;;;10.60;99.90;;;;;;4991649;28;20433;-71
2022/11/17 10:43:14;;;;;;;9.00;2.17;;;10.60;99.90;;;;;;4996324;28;20058;-71
2022/11/17 10:46:03;;;;;;;11.55;2.17;;;10.60;99.90;;;;;;4991049;28;20026;-71
2022/11/17 10:48:31;;;;;;;12.32;2.42;;;10.60;99.90;;;;;;4986747;28;20182;-73
2022/11/17 10:51:00;;;;;;;8.15;1.77;;;10.60;99.90;;;;;;4983874;28;20037;-69
2022/11/17 10:53:29;;;;;;;11.88;2.25;;;10.60;99.90;;;;;;4978723;28;21545;-71
2022/11/17 10:56:02;;;;;;;13.68;2.10;;;10.60;99.90;;;;;;4982211;28;20026;-71
2022/11/17 10:58:30;;;;;;;12.38;2.00;;;10.60;99.90;;;;;;4986726;28;20435;-71
2022/11/17 11:00:58;;;;;;;8.05;1.25;;;10.60;99.90;;;;;;4981798;28;20114;-72
2022/11/17 11:03:28;;;;;;;7.57;1.20;;;10.60;99.90;;;;;;4990272;28;20290;-72
2022/11/17 11:05:58;;;;;;;5.78;1.20;;;10.60;99.90;;;;;;4991011;28;20019;-72
2022/11/17 11:08:30;;;;;;;7.07;1.15;;;10.60;99.90;;;;;;4990704;28;20030;-70
2022/11/17 11:10:58;;;;;;;8.85;1.20;;;10.60;99.90;;;;;;4985391;28;20027;-71
2022/11/17 11:13:56;;;;;;;4.22;1.10;;;10.60;99.90;;;;;;4983197;28;20034;-72
2022/11/17 11:16:24;;;;;;;4.93;1.23;;;10.60;99.90;;;;;;4981576;28;20026;-72
2022/11/17 11:18:51;;;;;;;8.73;1.38;;;10.60;99.90;;;;;;4990050;28;20141;-72
2022/11/17 11:21:23;;;;;;;7.07;1.30;;;10.70;99.90;;;;;;4991145;28;20018;-72
2022/11/17 11:24:06;;;;;;;5.63;1.48;;;10.70;99.90;;;;;;4990338;28;20082;-72
2022/11/17 11:26:44;;;;;;;11.82;1.60;;;10.70;99.90;;;;;;4980988;28;20105;-72
2022/11/17 11:29:49;;;;;;;5.00;1.40;;;10.70;99.90;;;;;;4990296;28;20029;-72
2022/11/17 11:32:52;;;;;;;10.27;1.65;;;10.70;99.90;;;;;;4949639;28;20042;-71
2022/11/17 11:35:36;;;;;;;10.65;2.00;;;10.80;99.90;;;;;;4986956;28;20116;-71
2022/11/17 11:38:14;;;;;;;4.40;1.40;;;10.80;99.90;;;;;;4990633;28;20026;-71
2022/11/17 11:40:45;;;;;;;7.30;1.52;;;10.80;99.90;;;;;;4990254;28;20026;-72
2022/11/17 11:43:42;;;;;;;4.45;1.40;;;10.80;99.90;;;;;;4982497;28;20078;-71
2022/11/17 11:46:43;;;;;;;4.15;1.40;;;10.80;99.90;;;;;;4977664;28;20479;-72
2022/11/17 11:49:52;;;;;;;4.53;1.35;;;10.80;99.90;;;;;;4980246;28;20050;-72
2022/11/17 11:52:26;;;;;;;7.82;1.52;;;10.80;99.90;;;;;;4982642;28;20058;-72
2022/11/17 11:54:58;;;;;;;8.90;1.83;;;10.80;99.90;;;;;;4990184;28;20034;-71
2022/11/17 11:57:32;;;;;;;6.00;1.50;;;10.80;99.90;;;;;;4990648;28;20030;-73
2022/11/17 12:00:02;;;;;;;7.90;1.95;;;10.80;99.90;;;;;;4994289;28;20403;-72
2022/11/17 12:02:42;;;;;;;10.35;2.22;;;10.80;99.90;;;;;;4987028;28;20031;-73
2022/11/17 12:05:35;;;;;;;8.52;1.92;;;10.80;99.90;;;;;;4988848;28;20113;-72
2022/11/17 12:08:17;;;;;;;11.48;2.33;;;10.80;99.90;;;;;;4984316;28;20093;-72
2022/11/17 12:11:59;;;;;;;8.40;2.10;;;10.80;99.90;;;;;;4976360;28;20045;-72
2022/11/17 12:13:51;;;;;;;7.25;2.10;;;10.80;99.90;;;;;;4974962;28;20042;-72
2022/11/17 12:16:31;;;;;;;8.18;2.05;;;10.80;99.90;;;;;;4993690;28;20027;-72
2022/11/17 12:18:57;;;;;;;7.50;1.98;;;10.70;99.90;;;;;;4993855;28;20126;-72
2022/11/17 12:21:24;;;;;;;5.10;1.75;;;10.70;99.90;;;;;;4993830;28;20519;-72
2022/11/17 12:24:14;;;;;;;7.07;1.65;;;10.70;99.90;;;;;;4993408;28;20070;-72
2022/11/17 12:26:40;;;;;;;7.43;1.90;;;10.70;99.90;;;;;;4974009;28;20058;-72
2022/11/17 12:29:21;;;;;;;7.10;1.83;;;10.60;99.90;;;;;;4988908;28;20061;-73
2022/11/17 12:32:00;;;;;;;6.05;1.40;;;10.70;99.90;;;;;;4984565;28;20081;-72
2022/11/17 12:34:34;;;;;;;8.60;1.88;;;10.60;99.90;;;;;;4990769;28;20574;-73
2022/11/17 12:37:17;;;;;;;5.07;1.50;;;10.60;99.90;;;;;;4993232;28;20019;-73
2022/11/17 12:39:54;;;;;;;8.82;1.60;;;10.60;99.90;;;;;;4979245;28;20030;-72
2022/11/17 12:42:20;;;;;;;5.65;1.60;;;10.60;99.90;;;;;;4993545;28;20026;-72
2022/11/17 12:44:46;;;;;;;6.65;2.00;;;10.60;99.90;;;;;;4993613;28;20499;-72
2022/11/17 12:47:17;;;;;;;6.22;1.90;;;10.60;99.90;;;;;;4986154;28;20058;-72
2022/11/17 12:49:42;;;;;;;4.25;1.90;;;10.60;99.90;;;;;;4987357;28;20022;-72
2022/11/17 12:52:19;;;;;;;4.70;1.83;;;10.60;99.90;;;;;;4980194;28;20037;-72
2022/11/17 12:55:04;;;;;;;6.60;2.13;;;10.60;99.90;;;;;;4993864;28;20406;-72
2022/11/17 12:57:33;;;;;;;6.95;1.85;;;10.60;99.90;;;;;;4982202;28;20022;-72
2022/11/17 13:00:20;;;;;;;6.03;1.95;;;10.60;99.90;;;;;;4993045;28;20038;-72
2022/11/17 13:03:16;;;;;;;4.38;1.88;;;10.70;99.90;;;;;;4983944;28;20375;-72
2022/11/17 13:05:42;;;;;;;5.13;1.70;;;10.70;99.90;;;;;;4992516;28;20026;-72
2022/11/17 13:08:20;;;;;;;6.38;2.10;;;10.70;99.90;;;;;;4982457;28;20106;-72
2022/11/17 13:10:46;;;;;;;5.97;2.00;;;10.70;99.90;;;;;;4987344;28;20063;-72
2022/11/17 13:13:22;;;;;;;10.40;2.47;;;10.80;99.90;;;;;;4973416;28;20112;-72
2022/11/17 13:15:59;;;;;;;7.72;2.40;;;10.80;99.90;;;;;;4990107;28;20026;-72
2022/11/17 13:18:30;;;;;;;7.68;2.40;;;10.80;99.90;;;;;;4992567;28;20027;-73
2022/11/17 13:20:57;;;;;;;10.70;2.92;;;10.80;99.90;;;;;;4992508;28;20014;-73
2022/11/17 13:23:25;;;;;;;12.45;2.72;;;10.80;99.90;;;;;;4992441;28;20038;-73
2022/11/17 13:26:15;;;;;;;13.85;2.88;;;10.80;99.90;;;;;;4992713;28;20449;-72
2022/11/17 13:28:43;;;;;;;10.77;2.42;;;10.90;99.90;;;;;;4992722;28;20030;-72